sensor_id;sensor_type;location;lat;lon;timestamp;P1;durP1;ratioP1;P2;durP2;ratioP2
14740;SDS011;7462;53.530;9.414;2023-03-31T00:00:50;15.87;;;3.20;;
14740;SDS011;7462;53.530;9.414;2023-03-31T00:03:21;18.50;;;3.50;;
14740;SDS011;7462;53.530;9.414;2023-03-31T00:05:53;14.97;;;3.40;;
14740;SDS011;7462;53.530;9.414;2023-03-31T00:08:23;14.83;;;2.80;;
14740;SDS011;7462;53.530;9.414;2023-03-31T00:10:57;16.67;;;3.47;;
14740;SDS011;7462;53.530;9.414;2023-03-31T00:13:26;14.37;;;2.77;;
14740;SDS011;7462;53.530;9.414;2023-03-31T00:15:55;10.73;;;3.07;;
14740;SDS011;7462;53.530;9.414;2023-03-31T00:18:26;15.03;;;3.67;;
14740;SDS011;7462;53.530;9.414;2023-03-31T00:20:58;14.20;;;2.93;;
14740;SDS011;7462;53.530;9.414;2023-03-31T00:23:32;16.10;;;3.47;;
14740;SDS011;7462;53.530;9.414;2023-03-31T00:26:00;13.67;;;3.60;;
14740;SDS011;7462;53.530;9.414;2023-03-31T00:28:29;12.83;;;3.23;;
14740;SDS011;7462;53.530;9.414;2023-03-31T00:31:00;15.17;;;3.40;;
14740;SDS011;7462;53.530;9.414;2023-03-31T00:33:31;16.30;;;3.07;;
14740;SDS011;7462;53.530;9.414;2023-03-31T00:35:59;11.93;;;2.87;;
14740;SDS011;7462;53.530;9.414;2023-03-31T00:38:32;14.50;;;3.00;;
14740;SDS011;7462;53.530;9.414;2023-03-31T00:41:01;15.47;;;3.43;;
14740;SDS011;7462;53.530;9.414;2023-03-31T00:43:30;14.97;;;3.43;;
14740;SDS011;7462;53.530;9.414;2023-03-31T00:46:02;16.60;;;3.43;;
14740;SDS011;7462;53.530;9.414;2023-03-31T00:48:44;15.20;;;2.80;;
14740;SDS011;7462;53.530;9.414;2023-03-31T00:51:16;16.17;;;3.60;;
14740;SDS011;7462;53.530;9.414;2023-03-31T00:53:46;15.90;;;3.43;;
14740;SDS011;7462;53.530;9.414;2023-03-31T00:56:20;16.90;;;3.50;;
14740;SDS011;7462;53.530;9.414;2023-03-31T00:58:48;11.07;;;2.67;;
14740;SDS011;7462;53.530;9.414;2023-03-31T01:01:19;14.70;;;2.97;;
14740;SDS011;7462;53.530;9.414;2023-03-31T01:03:52;15.37;;;2.80;;
14740;SDS011;7462;53.530;9.414;2023-03-31T01:06:20;16.83;;;3.10;;
14740;SDS011;7462;53.530;9.414;2023-03-31T01:08:50;15.70;;;3.33;;
14740;SDS011;7462;53.530;9.414;2023-03-31T01:11:21;14.57;;;3.00;;
14740;SDS011;7462;53.530;9.414;2023-03-31T01:13:53;16.60;;;3.60;;
14740;SDS011;7462;53.530;9.414;2023-03-31T01:16:23;17.13;;;3.83;;
14740;SDS011;7462;53.530;9.414;2023-03-31T01:18:53;10.53;;;2.83;;
14740;SDS011;7462;53.530;9.414;2023-03-31T01:21:37;19.60;;;3.83;;
14740;SDS011;7462;53.530;9.414;2023-03-31T01:27:43;14.20;;;3.57;;
14740;SDS011;7462;53.530;9.414;2023-03-31T01:30:26;12.27;;;2.83;;
14740;SDS011;7462;53.530;9.414;2023-03-31T01:33:18;17.10;;;3.17;;
14740;SDS011;7462;53.530;9.414;2023-03-31T01:39:43;17.00;;;3.60;;
14740;SDS011;7462;53.530;9.414;2023-03-31T01:42:35;16.23;;;3.40;;
14740;SDS011;7462;53.530;9.414;2023-03-31T01:45:09;15.57;;;4.00;;
14740;SDS011;7462;53.530;9.414;2023-03-31T01:47:47;14.20;;;3.80;;
14740;SDS011;7462;53.530;9.414;2023-03-31T01:50:21;13.53;;;3.70;;
14740;SDS011;7462;53.530;9.414;2023-03-31T01:52:55;12.50;;;3.50;;
14740;SDS011;7462;53.530;9.414;2023-03-31T01:55:30;13.53;;;3.13;;
14740;SDS011;7462;53.530;9.414;2023-03-31T01:58:05;11.07;;;3.13;;
14740;SDS011;7462;53.530;9.414;2023-03-31T02:00:40;16.73;;;4.03;;
14740;SDS011;7462;53.530;9.414;2023-03-31T02:03:13;13.83;;;4.17;;
14740;SDS011;7462;53.530;9.414;2023-03-31T02:05:48;12.07;;;3.77;;
14740;SDS011;7462;53.530;9.414;2023-03-31T02:08:21;15.13;;;3.83;;
14740;SDS011;7462;53.530;9.414;2023-03-31T02:10:53;16.27;;;3.97;;
14740;SDS011;7462;53.530;9.414;2023-03-31T02:13:24;12.57;;;3.83;;
14740;SDS011;7462;53.530;9.414;2023-03-31T02:15:55;16.73;;;4.20;;
14740;SDS011;7462;53.530;9.414;2023-03-31T02:18:28;14.43;;;3.60;;
14740;SDS011;7462;53.530;9.414;2023-03-31T02:21:04;18.07;;;3.93;;
14740;SDS011;7462;53.530;9.414;2023-03-31T02:23:35;13.33;;;3.30;;
14740;SDS011;7462;53.530;9.414;2023-03-31T02:26:07;15.27;;;3.43;;
14740;SDS011;7462;53.530;9.414;2023-03-31T02:28:38;16.00;;;4.23;;
14740;SDS011;7462;53.530;9.414;2023-03-31T02:31:17;13.60;;;3.83;;
14740;SDS011;7462;53.530;9.414;2023-03-31T02:33:52;13.03;;;3.60;;
14740;SDS011;7462;53.530;9.414;2023-03-31T02:36:21;14.43;;;3.70;;
14740;SDS011;7462;53.530;9.414;2023-03-31T02:38:51;17.03;;;3.37;;
14740;SDS011;7462;53.530;9.414;2023-03-31T02:41:23;14.87;;;3.67;;
14740;SDS011;7462;53.530;9.414;2023-03-31T02:43:51;15.77;;;3.33;;
14740;SDS011;7462;53.530;9.414;2023-03-31T02:46:22;17.43;;;3.77;;
14740;SDS011;7462;53.530;9.414;2023-03-31T02:48:52;15.33;;;3.87;;
14740;SDS011;7462;53.530;9.414;2023-03-31T02:51:27;15.40;;;3.83;;
14740;SDS011;7462;53.530;9.414;2023-03-31T02:54:08;19.13;;;4.07;;
14740;SDS011;7462;53.530;9.414;2023-03-31T02:57:00;16.33;;;3.90;;
14740;SDS011;7462;53.530;9.414;2023-03-31T02:59:49;14.60;;;3.60;;
14740;SDS011;7462;53.530;9.414;2023-03-31T03:02:36;16.50;;;4.10;;
14740;SDS011;7462;53.530;9.414;2023-03-31T03:05:17;13.60;;;3.83;;
14740;SDS011;7462;53.530;9.414;2023-03-31T03:08:12;14.30;;;3.80;;
14740;SDS011;7462;53.530;9.414;2023-03-31T03:10:49;17.13;;;4.37;;
14740;SDS011;7462;53.530;9.414;2023-03-31T03:13:29;14.80;;;4.33;;
14740;SDS011;7462;53.530;9.414;2023-03-31T03:16:07;13.47;;;3.63;;
14740;SDS011;7462;53.530;9.414;2023-03-31T03:18:44;13.73;;;4.07;;
14740;SDS011;7462;53.530;9.414;2023-03-31T03:21:18;16.67;;;4.37;;
14740;SDS011;7462;53.530;9.414;2023-03-31T03:23:46;11.27;;;3.67;;
14740;SDS011;7462;53.530;9.414;2023-03-31T03:26:14;12.57;;;4.40;;
14740;SDS011;7462;53.530;9.414;2023-03-31T03:28:47;11.20;;;4.30;;
14740;SDS011;7462;53.530;9.414;2023-03-31T03:31:16;14.30;;;4.80;;
14740;SDS011;7462;53.530;9.414;2023-03-31T03:33:44;12.67;;;4.60;;
14740;SDS011;7462;53.530;9.414;2023-03-31T03:36:12;13.07;;;4.17;;
14740;SDS011;7462;53.530;9.414;2023-03-31T03:38:40;15.40;;;4.80;;
14740;SDS011;7462;53.530;9.414;2023-03-31T03:41:09;13.57;;;4.27;;
14740;SDS011;7462;53.530;9.414;2023-03-31T03:43:37;14.07;;;4.60;;
14740;SDS011;7462;53.530;9.414;2023-03-31T03:46:06;11.07;;;3.90;;
14740;SDS011;7462;53.530;9.414;2023-03-31T03:48:35;13.30;;;4.23;;
14740;SDS011;7462;53.530;9.414;2023-03-31T03:51:03;13.40;;;4.60;;
14740;SDS011;7462;53.530;9.414;2023-03-31T03:53:31;15.10;;;5.03;;
14740;SDS011;7462;53.530;9.414;2023-03-31T03:55:59;12.33;;;4.60;;
14740;SDS011;7462;53.530;9.414;2023-03-31T03:58:27;10.50;;;4.20;;
14740;SDS011;7462;53.530;9.414;2023-03-31T04:00:56;15.33;;;5.30;;
14740;SDS011;7462;53.530;9.414;2023-03-31T04:03:25;17.23;;;5.10;;
14740;SDS011;7462;53.530;9.414;2023-03-31T04:05:53;12.93;;;5.00;;
14740;SDS011;7462;53.530;9.414;2023-03-31T04:08:21;10.47;;;4.93;;
14740;SDS011;7462;53.530;9.414;2023-03-31T04:10:50;12.93;;;5.50;;
14740;SDS011;7462;53.530;9.414;2023-03-31T04:13:18;12.97;;;5.50;;
14740;SDS011;7462;53.530;9.414;2023-03-31T04:15:46;14.73;;;5.40;;
14740;SDS011;7462;53.530;9.414;2023-03-31T04:18:14;16.77;;;5.57;;
14740;SDS011;7462;53.530;9.414;2023-03-31T04:20:49;11.13;;;5.23;;
14740;SDS011;7462;53.530;9.414;2023-03-31T04:23:29;16.57;;;5.63;;
14740;SDS011;7462;53.530;9.414;2023-03-31T04:25:58;17.50;;;5.60;;
14740;SDS011;7462;53.530;9.414;2023-03-31T04:28:26;14.50;;;5.70;;
14740;SDS011;7462;53.530;9.414;2023-03-31T04:31:00;16.90;;;5.57;;
14740;SDS011;7462;53.530;9.414;2023-03-31T04:33:31;14.17;;;5.53;;
14740;SDS011;7462;53.530;9.414;2023-03-31T04:36:05;12.93;;;5.27;;
14740;SDS011;7462;53.530;9.414;2023-03-31T04:38:43;12.13;;;6.00;;
14740;SDS011;7462;53.530;9.414;2023-03-31T04:41:12;13.80;;;5.37;;
14740;SDS011;7462;53.530;9.414;2023-03-31T04:43:40;16.83;;;5.90;;
14740;SDS011;7462;53.530;9.414;2023-03-31T04:46:09;12.27;;;4.73;;
14740;SDS011;7462;53.530;9.414;2023-03-31T04:48:37;14.13;;;5.37;;
14740;SDS011;7462;53.530;9.414;2023-03-31T04:51:06;11.60;;;4.87;;
14740;SDS011;7462;53.530;9.414;2023-03-31T04:53:36;14.27;;;5.37;;
14740;SDS011;7462;53.530;9.414;2023-03-31T04:56:04;16.63;;;5.13;;
14740;SDS011;7462;53.530;9.414;2023-03-31T04:58:38;15.57;;;5.47;;
14740;SDS011;7462;53.530;9.414;2023-03-31T05:01:11;12.23;;;5.40;;
14740;SDS011;7462;53.530;9.414;2023-03-31T05:03:44;15.83;;;5.43;;
14740;SDS011;7462;53.530;9.414;2023-03-31T05:06:17;13.37;;;5.50;;
14740;SDS011;7462;53.530;9.414;2023-03-31T05:08:46;12.33;;;5.03;;
14740;SDS011;7462;53.530;9.414;2023-03-31T05:11:16;13.90;;;5.80;;
14740;SDS011;7462;53.530;9.414;2023-03-31T05:13:48;11.13;;;5.73;;
14740;SDS011;7462;53.530;9.414;2023-03-31T05:16:16;15.23;;;5.13;;
14740;SDS011;7462;53.530;9.414;2023-03-31T05:18:46;12.27;;;5.00;;
14740;SDS011;7462;53.530;9.414;2023-03-31T05:21:15;15.53;;;5.40;;
14740;SDS011;7462;53.530;9.414;2023-03-31T05:23:47;14.90;;;5.43;;
14740;SDS011;7462;53.530;9.414;2023-03-31T05:26:16;12.33;;;4.87;;
14740;SDS011;7462;53.530;9.414;2023-03-31T05:28:44;11.67;;;5.03;;
14740;SDS011;7462;53.530;9.414;2023-03-31T05:31:14;13.33;;;4.90;;
14740;SDS011;7462;53.530;9.414;2023-03-31T05:33:42;13.27;;;5.73;;
14740;SDS011;7462;53.530;9.414;2023-03-31T05:36:11;13.27;;;5.70;;
14740;SDS011;7462;53.530;9.414;2023-03-31T05:38:41;9.07;;;5.43;;
14740;SDS011;7462;53.530;9.414;2023-03-31T05:41:11;13.70;;;5.53;;
14740;SDS011;7462;53.530;9.414;2023-03-31T05:43:39;12.27;;;5.33;;
14740;SDS011;7462;53.530;9.414;2023-03-31T05:46:08;13.33;;;5.43;;
14740;SDS011;7462;53.530;9.414;2023-03-31T05:48:37;11.03;;;4.90;;
14740;SDS011;7462;53.530;9.414;2023-03-31T05:51:05;11.63;;;5.00;;
14740;SDS011;7462;53.530;9.414;2023-03-31T05:53:33;15.20;;;5.37;;
14740;SDS011;7462;53.530;9.414;2023-03-31T05:56:03;11.23;;;5.23;;
14740;SDS011;7462;53.530;9.414;2023-03-31T05:58:33;12.53;;;5.13;;
14740;SDS011;7462;53.530;9.414;2023-03-31T06:01:02;12.40;;;5.37;;
14740;SDS011;7462;53.530;9.414;2023-03-31T06:03:33;13.63;;;5.10;;
14740;SDS011;7462;53.530;9.414;2023-03-31T06:06:02;15.17;;;4.20;;
14740;SDS011;7462;53.530;9.414;2023-03-31T06:08:31;10.67;;;4.63;;
14740;SDS011;7462;53.530;9.414;2023-03-31T06:11:01;11.57;;;5.03;;
14740;SDS011;7462;53.530;9.414;2023-03-31T06:13:33;12.00;;;4.70;;
14740;SDS011;7462;53.530;9.414;2023-03-31T06:16:02;13.77;;;5.33;;
14740;SDS011;7462;53.530;9.414;2023-03-31T06:18:32;11.07;;;4.90;;
14740;SDS011;7462;53.530;9.414;2023-03-31T06:21:01;10.30;;;4.83;;
14740;SDS011;7462;53.530;9.414;2023-03-31T06:23:31;14.53;;;5.03;;
14740;SDS011;7462;53.530;9.414;2023-03-31T06:25:59;15.50;;;5.20;;
14740;SDS011;7462;53.530;9.414;2023-03-31T06:28:30;11.00;;;4.87;;
14740;SDS011;7462;53.530;9.414;2023-03-31T06:31:00;14.63;;;5.20;;
14740;SDS011;7462;53.530;9.414;2023-03-31T06:33:29;11.63;;;5.27;;
14740;SDS011;7462;53.530;9.414;2023-03-31T06:35:57;14.70;;;5.43;;
14740;SDS011;7462;53.530;9.414;2023-03-31T06:38:27;14.90;;;6.10;;
14740;SDS011;7462;53.530;9.414;2023-03-31T06:40:55;14.60;;;6.33;;
14740;SDS011;7462;53.530;9.414;2023-03-31T06:43:23;12.20;;;5.90;;
14740;SDS011;7462;53.530;9.414;2023-03-31T06:45:52;15.47;;;6.87;;
14740;SDS011;7462;53.530;9.414;2023-03-31T06:48:21;12.03;;;6.53;;
14740;SDS011;7462;53.530;9.414;2023-03-31T06:50:51;15.07;;;6.70;;
14740;SDS011;7462;53.530;9.414;2023-03-31T06:53:20;11.33;;;6.30;;
14740;SDS011;7462;53.530;9.414;2023-03-31T06:55:48;14.07;;;8.03;;
14740;SDS011;7462;53.530;9.414;2023-03-31T06:58:17;14.57;;;7.37;;
14740;SDS011;7462;53.530;9.414;2023-03-31T07:00:45;12.87;;;7.63;;
14740;SDS011;7462;53.530;9.414;2023-03-31T07:03:14;15.63;;;7.20;;
14740;SDS011;7462;53.530;9.414;2023-03-31T07:05:46;17.43;;;8.23;;
14740;SDS011;7462;53.530;9.414;2023-03-31T07:08:15;15.23;;;7.87;;
14740;SDS011;7462;53.530;9.414;2023-03-31T07:10:44;14.63;;;7.30;;
14740;SDS011;7462;53.530;9.414;2023-03-31T07:13:14;13.53;;;7.90;;
14740;SDS011;7462;53.530;9.414;2023-03-31T07:15:43;15.60;;;7.77;;
14740;SDS011;7462;53.530;9.414;2023-03-31T07:18:15;16.73;;;8.27;;
14740;SDS011;7462;53.530;9.414;2023-03-31T07:20:46;15.10;;;8.20;;
14740;SDS011;7462;53.530;9.414;2023-03-31T07:23:15;12.27;;;8.23;;
14740;SDS011;7462;53.530;9.414;2023-03-31T07:25:43;16.97;;;9.00;;
14740;SDS011;7462;53.530;9.414;2023-03-31T07:28:13;13.40;;;8.90;;
14740;SDS011;7462;53.530;9.414;2023-03-31T07:30:41;13.63;;;8.47;;
14740;SDS011;7462;53.530;9.414;2023-03-31T07:33:09;12.53;;;8.63;;
14740;SDS011;7462;53.530;9.414;2023-03-31T07:35:39;16.63;;;8.97;;
14740;SDS011;7462;53.530;9.414;2023-03-31T07:38:08;14.17;;;8.90;;
14740;SDS011;7462;53.530;9.414;2023-03-31T07:40:36;15.37;;;9.03;;
14740;SDS011;7462;53.530;9.414;2023-03-31T07:43:05;13.17;;;8.63;;
14740;SDS011;7462;53.530;9.414;2023-03-31T07:45:34;12.30;;;8.63;;
14740;SDS011;7462;53.530;9.414;2023-03-31T07:48:02;13.73;;;8.33;;
14740;SDS011;7462;53.530;9.414;2023-03-31T07:50:30;11.73;;;7.67;;
14740;SDS011;7462;53.530;9.414;2023-03-31T07:53:02;12.90;;;9.03;;
14740;SDS011;7462;53.530;9.414;2023-03-31T07:55:30;16.77;;;9.57;;
14740;SDS011;7462;53.530;9.414;2023-03-31T07:57:58;16.50;;;9.53;;
14740;SDS011;7462;53.530;9.414;2023-03-31T08:00:26;11.83;;;9.10;;
14740;SDS011;7462;53.530;9.414;2023-03-31T08:02:54;17.67;;;9.23;;
14740;SDS011;7462;53.530;9.414;2023-03-31T08:05:22;13.23;;;8.40;;
14740;SDS011;7462;53.530;9.414;2023-03-31T08:07:50;14.00;;;8.20;;
14740;SDS011;7462;53.530;9.414;2023-03-31T08:10:21;12.07;;;7.90;;
14740;SDS011;7462;53.530;9.414;2023-03-31T08:12:50;13.33;;;8.20;;
14740;SDS011;7462;53.530;9.414;2023-03-31T08:15:18;12.07;;;8.00;;
14740;SDS011;7462;53.530;9.414;2023-03-31T08:17:46;13.87;;;8.10;;
14740;SDS011;7462;53.530;9.414;2023-03-31T08:20:14;12.20;;;6.97;;
14740;SDS011;7462;53.530;9.414;2023-03-31T08:22:43;11.07;;;7.93;;
14740;SDS011;7462;53.530;9.414;2023-03-31T08:25:11;10.40;;;6.97;;
14740;SDS011;7462;53.530;9.414;2023-03-31T08:27:40;10.67;;;6.37;;
14740;SDS011;7462;53.530;9.414;2023-03-31T08:30:09;12.47;;;7.40;;
14740;SDS011;7462;53.530;9.414;2023-03-31T08:32:38;9.73;;;6.90;;
14740;SDS011;7462;53.530;9.414;2023-03-31T08:35:06;11.63;;;7.20;;
14740;SDS011;7462;53.530;9.414;2023-03-31T08:37:35;12.17;;;6.77;;
14740;SDS011;7462;53.530;9.414;2023-03-31T08:40:04;10.27;;;7.13;;
14740;SDS011;7462;53.530;9.414;2023-03-31T08:42:35;9.83;;;6.83;;
14740;SDS011;7462;53.530;9.414;2023-03-31T08:45:10;9.50;;;6.53;;
14740;SDS011;7462;53.530;9.414;2023-03-31T08:47:44;9.87;;;6.60;;
14740;SDS011;7462;53.530;9.414;2023-03-31T08:50:16;9.70;;;6.30;;
14740;SDS011;7462;53.530;9.414;2023-03-31T08:52:47;9.03;;;6.37;;
14740;SDS011;7462;53.530;9.414;2023-03-31T08:55:22;7.63;;;6.40;;
14740;SDS011;7462;53.530;9.414;2023-03-31T08:57:58;8.80;;;6.03;;
14740;SDS011;7462;53.530;9.414;2023-03-31T09:00:36;9.77;;;6.83;;
14740;SDS011;7462;53.530;9.414;2023-03-31T09:03:10;8.93;;;6.27;;
14740;SDS011;7462;53.530;9.414;2023-03-31T09:05:52;9.20;;;5.87;;
14740;SDS011;7462;53.530;9.414;2023-03-31T09:08:38;7.53;;;6.00;;
14740;SDS011;7462;53.530;9.414;2023-03-31T09:11:17;9.10;;;6.23;;
14740;SDS011;7462;53.530;9.414;2023-03-31T09:14:05;9.23;;;6.10;;
14740;SDS011;7462;53.530;9.414;2023-03-31T09:16:42;7.40;;;6.30;;
14740;SDS011;7462;53.530;9.414;2023-03-31T09:19:17;10.80;;;6.90;;
14740;SDS011;7462;53.530;9.414;2023-03-31T09:21:51;8.67;;;6.20;;
14740;SDS011;7462;53.530;9.414;2023-03-31T09:24:22;9.23;;;6.17;;
14740;SDS011;7462;53.530;9.414;2023-03-31T09:26:57;7.20;;;5.30;;
14740;SDS011;7462;53.530;9.414;2023-03-31T09:29:28;6.00;;;4.93;;
14740;SDS011;7462;53.530;9.414;2023-03-31T09:32:13;7.97;;;5.13;;
14740;SDS011;7462;53.530;9.414;2023-03-31T09:34:43;9.83;;;5.87;;
14740;SDS011;7462;53.530;9.414;2023-03-31T09:37:12;6.13;;;5.30;;
14740;SDS011;7462;53.530;9.414;2023-03-31T09:39:41;7.60;;;6.37;;
14740;SDS011;7462;53.530;9.414;2023-03-31T09:42:09;9.10;;;6.20;;
14740;SDS011;7462;53.530;9.414;2023-03-31T09:44:40;8.17;;;6.17;;
14740;SDS011;7462;53.530;9.414;2023-03-31T09:47:13;8.53;;;6.07;;
14740;SDS011;7462;53.530;9.414;2023-03-31T09:49:45;8.07;;;5.43;;
14740;SDS011;7462;53.530;9.414;2023-03-31T09:52:23;8.90;;;5.70;;
14740;SDS011;7462;53.530;9.414;2023-03-31T09:54:57;7.37;;;5.60;;
14740;SDS011;7462;53.530;9.414;2023-03-31T09:57:27;6.40;;;5.20;;
14740;SDS011;7462;53.530;9.414;2023-03-31T10:00:00;6.13;;;4.93;;
14740;SDS011;7462;53.530;9.414;2023-03-31T10:02:39;7.07;;;5.60;;
14740;SDS011;7462;53.530;9.414;2023-03-31T10:05:18;7.10;;;5.40;;
14740;SDS011;7462;53.530;9.414;2023-03-31T10:07:52;5.53;;;5.03;;
14740;SDS011;7462;53.530;9.414;2023-03-31T10:10:36;5.43;;;4.80;;
14740;SDS011;7462;53.530;9.414;2023-03-31T10:13:10;7.33;;;4.37;;
14740;SDS011;7462;53.530;9.414;2023-03-31T10:15:42;7.47;;;5.00;;
14740;SDS011;7462;53.530;9.414;2023-03-31T10:18:13;5.47;;;4.63;;
14740;SDS011;7462;53.530;9.414;2023-03-31T10:20:43;6.57;;;4.67;;
14740;SDS011;7462;53.530;9.414;2023-03-31T10:23:16;6.63;;;4.63;;
14740;SDS011;7462;53.530;9.414;2023-03-31T10:25:55;5.47;;;4.43;;
14740;SDS011;7462;53.530;9.414;2023-03-31T10:28:24;5.33;;;4.70;;
14740;SDS011;7462;53.530;9.414;2023-03-31T10:30:58;5.10;;;4.37;;
14740;SDS011;7462;53.530;9.414;2023-03-31T10:33:30;6.70;;;4.60;;
14740;SDS011;7462;53.530;9.414;2023-03-31T10:36:01;5.20;;;4.70;;
14740;SDS011;7462;53.530;9.414;2023-03-31T10:38:34;5.43;;;4.30;;
14740;SDS011;7462;53.530;9.414;2023-03-31T10:41:05;5.40;;;4.20;;
14740;SDS011;7462;53.530;9.414;2023-03-31T10:43:36;7.90;;;4.80;;
14740;SDS011;7462;53.530;9.414;2023-03-31T10:46:06;6.03;;;5.20;;
14740;SDS011;7462;53.530;9.414;2023-03-31T10:48:37;6.00;;;4.50;;
14740;SDS011;7462;53.530;9.414;2023-03-31T10:51:10;5.67;;;4.77;;
14740;SDS011;7462;53.530;9.414;2023-03-31T10:53:42;6.23;;;4.83;;
14740;SDS011;7462;53.530;9.414;2023-03-31T10:56:14;5.47;;;4.23;;
14740;SDS011;7462;53.530;9.414;2023-03-31T10:59:04;6.67;;;4.70;;
14740;SDS011;7462;53.530;9.414;2023-03-31T11:01:46;6.00;;;4.40;;
14740;SDS011;7462;53.530;9.414;2023-03-31T11:04:39;7.07;;;4.43;;
14740;SDS011;7462;53.530;9.414;2023-03-31T11:07:18;6.80;;;4.47;;
14740;SDS011;7462;53.530;9.414;2023-03-31T11:10:00;7.40;;;4.40;;
14740;SDS011;7462;53.530;9.414;2023-03-31T11:12:37;6.17;;;4.20;;
14740;SDS011;7462;53.530;9.414;2023-03-31T11:15:13;5.33;;;3.30;;
14740;SDS011;7462;53.530;9.414;2023-03-31T11:17:52;4.30;;;3.17;;
14740;SDS011;7462;53.530;9.414;2023-03-31T11:20:31;6.37;;;3.80;;
14740;SDS011;7462;53.530;9.414;2023-03-31T11:23:05;7.07;;;3.30;;
14740;SDS011;7462;53.530;9.414;2023-03-31T11:25:43;4.67;;;2.73;;
14740;SDS011;7462;53.530;9.414;2023-03-31T11:28:20;3.93;;;2.30;;
14740;SDS011;7462;53.530;9.414;2023-03-31T11:31:13;2.30;;;2.07;;
14740;SDS011;7462;53.530;9.414;2023-03-31T11:33:56;3.57;;;2.30;;
14740;SDS011;7462;53.530;9.414;2023-03-31T11:36:45;3.53;;;2.10;;
14740;SDS011;7462;53.530;9.414;2023-03-31T11:39:36;2.53;;;1.80;;
14740;SDS011;7462;53.530;9.414;2023-03-31T11:42:12;1.80;;;1.30;;
14740;SDS011;7462;53.530;9.414;2023-03-31T11:44:45;4.03;;;1.83;;
14740;SDS011;7462;53.530;9.414;2023-03-31T11:47:18;3.80;;;1.93;;
14740;SDS011;7462;53.530;9.414;2023-03-31T11:49:51;2.83;;;1.67;;
14740;SDS011;7462;53.530;9.414;2023-03-31T11:52:26;2.20;;;1.30;;
14740;SDS011;7462;53.530;9.414;2023-03-31T11:54:56;3.90;;;1.63;;
14740;SDS011;7462;53.530;9.414;2023-03-31T11:57:29;3.20;;;2.13;;
14740;SDS011;7462;53.530;9.414;2023-03-31T12:00:02;2.43;;;1.70;;
14740;SDS011;7462;53.530;9.414;2023-03-31T12:02:39;3.73;;;1.80;;
14740;SDS011;7462;53.530;9.414;2023-03-31T12:05:12;3.50;;;1.93;;
14740;SDS011;7462;53.530;9.414;2023-03-31T12:07:45;3.33;;;2.20;;
14740;SDS011;7462;53.530;9.414;2023-03-31T12:10:19;6.73;;;3.63;;
14740;SDS011;7462;53.530;9.414;2023-03-31T12:12:49;3.53;;;2.80;;
14740;SDS011;7462;53.530;9.414;2023-03-31T12:15:22;6.00;;;2.63;;
14740;SDS011;7462;53.530;9.414;2023-03-31T12:17:55;6.67;;;2.90;;
14740;SDS011;7462;53.530;9.414;2023-03-31T12:20:31;4.00;;;2.83;;
14740;SDS011;7462;53.530;9.414;2023-03-31T12:23:05;5.87;;;4.00;;
14740;SDS011;7462;53.530;9.414;2023-03-31T12:25:41;7.87;;;3.43;;
14740;SDS011;7462;53.530;9.414;2023-03-31T12:28:15;5.20;;;3.50;;
14740;SDS011;7462;53.530;9.414;2023-03-31T12:30:46;6.70;;;3.63;;
14740;SDS011;7462;53.530;9.414;2023-03-31T12:33:16;5.27;;;3.23;;
14740;SDS011;7462;53.530;9.414;2023-03-31T12:35:57;7.00;;;3.90;;
14740;SDS011;7462;53.530;9.414;2023-03-31T12:38:44;6.60;;;3.67;;
14740;SDS011;7462;53.530;9.414;2023-03-31T12:41:18;6.57;;;3.60;;
14740;SDS011;7462;53.530;9.414;2023-03-31T12:50:02;5.73;;;4.00;;
14740;SDS011;7462;53.530;9.414;2023-03-31T12:52:44;6.23;;;4.00;;
14740;SDS011;7462;53.530;9.414;2023-03-31T12:55:25;7.60;;;4.00;;
14740;SDS011;7462;53.530;9.414;2023-03-31T13:01:13;4.67;;;3.90;;
14740;SDS011;7462;53.530;9.414;2023-03-31T13:03:53;9.43;;;4.23;;
14740;SDS011;7462;53.530;9.414;2023-03-31T13:06:48;7.07;;;4.50;;
14740;SDS011;7462;53.530;9.414;2023-03-31T13:12:10;5.63;;;4.33;;
14740;SDS011;7462;53.530;9.414;2023-03-31T13:14:42;5.07;;;3.93;;
14740;SDS011;7462;53.530;9.414;2023-03-31T13:17:17;8.13;;;4.57;;
14740;SDS011;7462;53.530;9.414;2023-03-31T13:19:51;8.33;;;4.97;;
14740;SDS011;7462;53.530;9.414;2023-03-31T13:22:26;7.90;;;5.40;;
14740;SDS011;7462;53.530;9.414;2023-03-31T13:28:03;6.03;;;4.90;;
14740;SDS011;7462;53.530;9.414;2023-03-31T13:30:49;4.77;;;4.10;;
14740;SDS011;7462;53.530;9.414;2023-03-31T13:33:20;6.70;;;4.40;;
14740;SDS011;7462;53.530;9.414;2023-03-31T13:35:53;6.10;;;3.97;;
14740;SDS011;7462;53.530;9.414;2023-03-31T13:38:35;5.13;;;4.00;;
14740;SDS011;7462;53.530;9.414;2023-03-31T13:41:17;6.27;;;4.47;;
14740;SDS011;7462;53.530;9.414;2023-03-31T13:43:58;4.87;;;4.20;;
14740;SDS011;7462;53.530;9.414;2023-03-31T13:47:13;5.67;;;4.37;;
14740;SDS011;7462;53.530;9.414;2023-03-31T13:49:57;5.13;;;4.37;;
14740;SDS011;7462;53.530;9.414;2023-03-31T13:52:43;4.77;;;4.10;;
14740;SDS011;7462;53.530;9.414;2023-03-31T13:55:23;4.40;;;4.00;;
14740;SDS011;7462;53.530;9.414;2023-03-31T14:04:46;5.00;;;4.50;;
14740;SDS011;7462;53.530;9.414;2023-03-31T14:07:31;4.33;;;3.93;;
14740;SDS011;7462;53.530;9.414;2023-03-31T14:10:05;3.83;;;3.40;;
14740;SDS011;7462;53.530;9.414;2023-03-31T14:12:47;4.40;;;3.20;;
14740;SDS011;7462;53.530;9.414;2023-03-31T14:15:18;3.97;;;3.20;;
14740;SDS011;7462;53.530;9.414;2023-03-31T14:17:49;3.30;;;3.00;;
14740;SDS011;7462;53.530;9.414;2023-03-31T14:20:22;3.63;;;2.83;;
14740;SDS011;7462;53.530;9.414;2023-03-31T14:22:58;6.13;;;3.23;;
14740;SDS011;7462;53.530;9.414;2023-03-31T14:25:39;3.77;;;3.00;;
14740;SDS011;7462;53.530;9.414;2023-03-31T14:28:18;3.03;;;2.73;;
14740;SDS011;7462;53.530;9.414;2023-03-31T14:30:58;3.77;;;3.37;;
14740;SDS011;7462;53.530;9.414;2023-03-31T14:33:41;3.80;;;3.40;;
14740;SDS011;7462;53.530;9.414;2023-03-31T14:36:15;4.40;;;3.70;;
14740;SDS011;7462;53.530;9.414;2023-03-31T14:38:51;4.13;;;3.30;;
14740;SDS011;7462;53.530;9.414;2023-03-31T14:41:20;3.80;;;3.03;;
14740;SDS011;7462;53.530;9.414;2023-03-31T14:43:56;4.13;;;3.33;;
14740;SDS011;7462;53.530;9.414;2023-03-31T14:46:28;3.20;;;2.90;;
14740;SDS011;7462;53.530;9.414;2023-03-31T14:49:03;3.80;;;3.40;;
14740;SDS011;7462;53.530;9.414;2023-03-31T14:51:33;4.37;;;3.70;;
14740;SDS011;7462;53.530;9.414;2023-03-31T14:54:01;3.50;;;3.13;;
14740;SDS011;7462;53.530;9.414;2023-03-31T14:56:30;3.30;;;3.00;;
14740;SDS011;7462;53.530;9.414;2023-03-31T14:59:02;5.87;;;3.60;;
14740;SDS011;7462;53.530;9.414;2023-03-31T15:01:33;5.40;;;4.10;;
14740;SDS011;7462;53.530;9.414;2023-03-31T15:04:06;6.73;;;3.97;;
14740;SDS011;7462;53.530;9.414;2023-03-31T15:06:37;6.37;;;4.03;;
14740;SDS011;7462;53.530;9.414;2023-03-31T15:09:08;4.83;;;3.80;;
14740;SDS011;7462;53.530;9.414;2023-03-31T15:11:52;4.37;;;3.93;;
14740;SDS011;7462;53.530;9.414;2023-03-31T15:14:25;3.77;;;3.40;;
14740;SDS011;7462;53.530;9.414;2023-03-31T15:16:56;5.50;;;4.17;;
14740;SDS011;7462;53.530;9.414;2023-03-31T15:19:28;3.90;;;3.50;;
14740;SDS011;7462;53.530;9.414;2023-03-31T15:21:57;4.13;;;3.77;;
14740;SDS011;7462;53.530;9.414;2023-03-31T15:24:28;4.43;;;4.03;;
14740;SDS011;7462;53.530;9.414;2023-03-31T15:26:57;4.60;;;3.73;;
14740;SDS011;7462;53.530;9.414;2023-03-31T15:29:30;5.43;;;4.83;;
14740;SDS011;7462;53.530;9.414;2023-03-31T15:32:03;4.47;;;4.00;;
14740;SDS011;7462;53.530;9.414;2023-03-31T15:34:40;5.87;;;5.37;;
14740;SDS011;7462;53.530;9.414;2023-03-31T15:37:11;6.50;;;5.87;;
14740;SDS011;7462;53.530;9.414;2023-03-31T15:39:42;5.67;;;4.83;;
14740;SDS011;7462;53.530;9.414;2023-03-31T15:42:11;6.57;;;4.53;;
14740;SDS011;7462;53.530;9.414;2023-03-31T15:44:43;5.53;;;5.00;;
14740;SDS011;7462;53.530;9.414;2023-03-31T15:47:14;5.57;;;5.07;;
14740;SDS011;7462;53.530;9.414;2023-03-31T15:49:49;8.00;;;6.47;;
14740;SDS011;7462;53.530;9.414;2023-03-31T15:52:20;9.27;;;8.17;;
14740;SDS011;7462;53.530;9.414;2023-03-31T15:54:51;8.67;;;7.60;;
14740;SDS011;7462;53.530;9.414;2023-03-31T15:57:19;6.77;;;5.53;;